Time;durP1;ratioP1;P1;durP2;ratioP2;P2;SDS_P1;SDS_P2;PMS_P1;PMS_P2;Temp;Humidity;BMP_temperature;BMP_pressure;BME280_temperature;BME280_humidity;BME280_pressure;Samples;Min_cycle;Max_cycle;Signal;HPM_P1;HPM_P2
2024/03/04 00:01:50;;;;;;;24.27;13.63;;;;;;;12.36;57.94;100623.34;4917371;28;125235;-91
2024/03/04 00:04:18;;;;;;;24.17;12.88;;;;;;;12.34;57.87;100625.19;4918028;28;123594;-90
2024/03/04 00:06:45;;;;;;;22.13;13.32;;;;;;;12.31;58.04;100625.41;4919845;28;113698;-91
2024/03/04 00:09:13;;;;;;;22.48;13.15;;;;;;;12.29;58.02;100622.81;4908613;28;113320;-90
2024/03/04 00:11:41;;;;;;;24.50;14.10;;;;;;;12.25;58.08;100627.44;4934821;28;123271;-89
2024/03/04 00:14:10;;;;;;;21.17;13.07;;;;;;;12.23;57.95;100629.31;4912393;28;125082;-90
2024/03/04 00:16:42;;;;;;;20.65;13.18;;;;;;;12.19;57.96;100627.78;4928065;28;113762;-90
2024/03/04 00:19:10;;;;;;;22.23;13.40;;;;;;;12.16;58.02;100633.25;4910953;28;113705;-90
2024/03/04 00:21:38;;;;;;;18.40;12.27;;;;;;;12.13;58.05;100633.44;4928437;28;123407;-90
2024/03/04 00:24:06;;;;;;;18.83;12.05;;;;;;;12.12;57.91;100637.03;4917435;28;122935;-91
2024/03/04 00:26:33;;;;;;;17.25;10.55;;;;;;;12.11;58.08;100640.63;4914364;28;116642;-90
2024/03/04 00:29:01;;;;;;;15.98;10.35;;;;;;;12.11;57.79;100648.59;4926223;28;115196;-89
2024/03/04 00:31:29;;;;;;;17.20;10.40;;;;;;;12.09;58.21;100647.81;4921197;28;123819;-90
2024/03/04 00:33:57;;;;;;;13.35;9.38;;;;;;;12.08;58.06;100656.72;4906341;28;126226;-89
2024/03/04 00:36:26;;;;;;;16.77;9.63;;;;;;;12.07;58.16;100661.19;4918781;28;116522;-91
2024/03/04 00:38:54;;;;;;;18.90;9.23;;;;;;;12.06;57.93;100658.59;4915739;28;114508;-90
2024/03/04 00:44:32;;;;;;;14.23;6.93;;;;;;;11.99;57.96;100667.84;4933863;28;122956;-70
2024/03/04 00:46:59;;;;;;;16.35;6.65;;;;;;;11.96;57.79;100667.97;4920292;28;114494;-68
2024/03/04 00:49:26;;;;;;;13.55;7.07;;;;;;;11.93;58.10;100676.13;4931432;28;114280;-70
2024/03/04 00:51:55;;;;;;;12.50;7.15;;;;;;;11.92;58.00;100677.06;4936118;28;123149;-70
2024/03/04 00:54:23;;;;;;;12.20;6.50;;;;;;;11.90;58.05;100678.94;4921518;28;123906;-70
2024/03/04 00:56:50;;;;;;;12.30;6.53;;;;;;;11.90;58.24;100684.25;4925454;28;114114;-70
2024/03/04 00:59:17;;;;;;;13.70;7.15;;;;;;;11.90;58.14;100692.22;4943794;28;114309;-70
2024/03/04 01:01:44;;;;;;;12.65;6.78;;;;;;;11.90;58.25;100684.25;4927065;28;124327;-70
2024/03/04 01:04:12;;;;;;;12.80;6.85;;;;;;;11.92;58.04;100687.66;4920220;28;124143;-70
2024/03/04 01:06:39;;;;;;;11.93;6.10;;;;;;;11.93;58.13;100682.28;4927975;28;115172;-70
2024/03/04 01:09:10;;;;;;;9.45;5.65;;;;;;;11.93;58.10;100684.09;4925471;28;114093;-70
2024/03/04 01:11:38;;;;;;;13.52;6.20;;;;;;;11.92;58.42;100687.66;4920527;28;124335;-70
2024/03/04 01:14:05;;;;;;;10.02;5.65;;;;;;;11.92;58.05;100692.97;4947152;28;122906;-70
2024/03/04 01:16:33;;;;;;;12.77;5.72;;;;;;;11.91;57.85;100696.59;4921814;28;116107;-70
2024/03/04 01:19:01;;;;;;;13.18;5.90;;;;;;;11.92;58.18;100698.28;4940818;28;113145;-70
2024/03/04 01:21:28;;;;;;;10.00;5.80;;;;;;;11.92;58.15;100703.59;4928627;28;124214;-70
2024/03/04 01:23:56;;;;;;;9.27;5.63;;;;;;;11.91;57.99;100712.50;4929013;28;124035;-70
2024/03/04 01:26:24;;;;;;;11.45;5.45;;;;;;;11.92;58.29;100707.09;4927073;28;115070;-70
2024/03/04 01:28:52;;;;;;;13.00;5.25;;;;;;;11.93;58.06;100715.94;4925958;28;114993;-70
2024/03/04 01:31:21;;;;;;;11.77;5.45;;;;;;;11.93;57.98;100726.56;4921288;28;124168;-69
2024/03/04 01:33:49;;;;;;;14.05;5.75;;;;;;;11.93;58.20;100726.56;4933590;28;123960;-70
2024/03/04 01:36:17;;;;;;;8.93;5.05;;;;;;;11.94;58.06;100728.25;4931878;28;114204;-70
2024/03/04 01:38:45;;;;;;;12.20;5.28;;;;;;;11.94;58.19;100733.56;4947261;28;113513;-70
2024/03/04 01:41:12;;;;;;;10.52;5.25;;;;;;;11.95;58.14;100735.28;4917107;28;124328;-70
2024/03/04 01:43:40;;;;;;;11.98;5.22;;;;;;;11.96;58.20;100748.50;4936125;28;123379;-70
2024/03/04 01:46:08;;;;;;;13.90;5.43;;;;;;;11.97;58.08;100752.00;4930195;28;114513;-70
2024/03/04 01:48:37;;;;;;;11.32;5.07;;;;;;;11.97;58.18;100750.19;4938906;28;114466;-70
2024/03/04 01:51:05;;;;;;;12.77;5.03;;;;;;;11.97;58.02;100755.50;4926772;28;124578;-70
2024/03/04 01:53:32;;;;;;;8.75;4.78;;;;;;;11.97;57.99;100759.97;4918430;28;123934;-71
2024/03/04 01:56:03;;;;;;;10.45;5.50;;;;;;;11.95;58.18;100757.38;4934006;28;114391;-70
2024/03/04 01:58:32;;;;;;;13.52;5.78;;;;;;;11.93;58.00;100764.56;4950302;28;113194;-70
2024/03/04 02:01:02;;;;;;;12.75;5.28;;;;;;;11.93;57.99;100763.72;4929039;28;125040;-70
2024/03/04 02:03:31;;;;;;;10.38;4.78;;;;;;;11.92;57.97;100772.59;4936328;28;123394;-71
2024/03/04 02:06:00;;;;;;;10.98;4.97;;;;;;;11.91;58.08;100770.91;4923264;28;114000;-71
2024/03/04 02:08:28;;;;;;;8.70;4.60;;;;;;;11.90;58.07;100774.47;4926160;28;114587;-70
2024/03/04 02:10:55;;;;;;;10.23;4.95;;;;;;;11.89;58.09;100773.59;4924158;28;124436;-70
2024/03/04 02:13:23;;;;;;;9.20;4.90;;;;;;;11.88;57.99;100772.75;4927397;28;124234;-70
2024/03/04 02:15:52;;;;;;;11.15;5.40;;;;;;;11.86;57.95;100771.94;4929726;28;115196;-70
2024/03/04 02:18:20;;;;;;;12.75;5.47;;;;;;;11.87;58.17;100771.00;4930538;28;115006;-70
2024/03/04 02:20:53;;;;;;;12.18;5.18;;;;;;;11.87;58.15;100765.72;4932623;28;124146;-70
2024/03/04 02:23:20;;;;;;;9.38;5.50;;;;;;;11.88;57.83;100770.09;4931729;28;123886;-70
2024/03/04 02:25:56;;;;;;;13.88;5.32;;;;;;;11.90;58.28;100775.31;4932745;28;114648;-70
2024/03/04 02:28:27;;;;;;;10.10;5.10;;;;;;;11.91;58.16;100770.91;4930447;28;114085;-70
2024/03/04 02:30:58;;;;;;;12.13;5.60;;;;;;;11.91;58.08;100770.91;4929946;28;126810;-70
2024/03/04 02:33:26;;;;;;;12.70;5.20;;;;;;;11.92;58.11;100767.28;4929719;28;123826;-70
2024/03/04 02:35:56;;;;;;;10.30;5.63;;;;;;;11.92;58.20;100775.25;4933427;28;114313;-70
2024/03/04 02:38:23;;;;;;;11.07;5.50;;;;;;;11.94;58.12;100786.66;4932825;28;114339;-70
2024/03/04 02:40:51;;;;;;;11.50;5.38;;;;;;;11.94;58.20;100786.66;4931430;28;123992;-69
2024/03/04 02:43:18;;;;;;;13.05;6.07;;;;;;;11.93;58.29;100795.56;4937499;28;124001;-70
2024/03/04 02:45:46;;;;;;;11.38;4.97;;;;;;;11.93;58.25;100800.88;4933015;28;113198;-70
2024/03/04 02:48:13;;;;;;;10.02;4.88;;;;;;;11.92;58.22;100804.44;4932105;28;114340;-70
2024/03/04 02:50:40;;;;;;;10.15;5.15;;;;;;;11.94;58.07;100802.56;4931318;28;124945;-70
2024/03/04 02:53:09;;;;;;;13.90;5.13;;;;;;;11.95;58.46;100806.97;4930667;28;123444;-70
2024/03/04 02:55:37;;;;;;;12.95;5.55;;;;;;;11.96;58.27;100806.00;4928020;28;114316;-70
2024/03/04 02:58:06;;;;;;;11.85;5.60;;;;;;;11.99;58.07;100805.84;4922609;28;114399;-70
2024/03/04 03:00:34;;;;;;;11.48;5.45;;;;;;;11.98;58.14;100804.13;4931254;28;124211;-70
2024/03/04 03:03:02;;;;;;;10.70;4.93;;;;;;;11.96;58.18;100811.31;4932123;28;124104;-70
2024/03/04 03:05:29;;;;;;;13.32;5.60;;;;;;;11.97;58.23;100823.66;4923215;28;114937;-70
2024/03/04 03:07:56;;;;;;;10.35;4.80;;;;;;;11.96;58.23;100827.22;4922176;28;115281;-69
2024/03/04 03:10:24;;;;;;;10.85;5.10;;;;;;;11.96;58.42;100832.53;4917589;28;125038;-70
2024/03/04 03:12:51;;;;;;;11.82;4.78;;;;;;;11.96;58.13;100828.13;4922540;28;124032;-70
2024/03/04 03:15:19;;;;;;;10.70;4.72;;;;;;;11.96;58.27;100827.22;4923054;28;114974;-70
2024/03/04 03:17:47;;;;;;;15.35;4.70;;;;;;;11.95;58.14;100836.16;4921265;28;112934;-70
2024/03/04 03:20:18;;;;;;;16.70;4.88;;;;;;;11.95;58.29;100830.84;4932031;28;123017;-70
2024/03/04 03:22:46;;;;;;;12.15;5.25;;;;;;;11.95;58.39;100826.38;4933790;28;124000;-70
2024/03/04 03:25:14;;;;;;;9.60;4.57;;;;;;;11.97;58.25;100831.63;4931345;28;114422;-70
2024/03/04 03:27:42;;;;;;;12.55;5.00;;;;;;;11.96;58.35;100832.53;4932916;28;114361;-70
2024/03/04 03:30:10;;;;;;;11.93;5.72;;;;;;;11.95;58.24;100830.84;4932434;28;123873;-70
2024/03/04 03:32:39;;;;;;;10.30;5.38;;;;;;;11.93;58.26;100832.72;4932549;28;124049;-70
2024/03/04 03:35:07;;;;;;;14.50;5.43;;;;;;;11.91;58.28;100839.91;4932814;28;114519;-69
2024/03/04 03:37:34;;;;;;;10.15;5.60;;;;;;;11.91;58.28;100839.91;4928126;28;114648;-70
2024/03/04 03:40:02;;;;;;;9.80;5.00;;;;;;;11.88;58.56;100833.78;4922520;28;124441;-69
2024/03/04 03:42:32;;;;;;;15.55;5.45;;;;;;;11.86;58.20;100838.28;4930063;28;123562;-70
2024/03/04 03:44:59;;;;;;;15.82;5.20;;;;;;;11.85;58.42;100847.19;4928932;28;114229;-69
2024/03/04 03:47:26;;;;;;;12.88;5.15;;;;;;;11.86;58.14;100858.66;4933783;28;113883;-69
2024/03/04 03:49:54;;;;;;;12.07;5.25;;;;;;;11.85;58.33;100857.81;4929615;28;124734;-69
2024/03/04 03:52:21;;;;;;;13.18;5.45;;;;;;;11.85;58.35;100857.81;4920640;28;123846;-69
2024/03/04 03:54:48;;;;;;;11.40;5.55;;;;;;;11.84;58.41;100856.09;4929034;28;115081;-69
2024/03/04 03:57:18;;;;;;;10.77;5.15;;;;;;;11.84;58.40;100861.38;4931457;28;115849;-70
2024/03/04 03:59:45;;;;;;;12.45;5.07;;;;;;;11.84;58.41;100857.88;4930034;28;124181;-70
2024/03/04 04:02:14;;;;;;;14.32;5.80;;;;;;;11.83;58.35;100859.69;4926729;28;124355;-70
2024/03/04 04:04:41;;;;;;;12.50;5.80;;;;;;;11.81;58.43;100863.34;4927576;28;114408;-70
2024/03/04 04:07:09;;;;;;;15.20;5.75;;;;;;;11.79;58.48;100860.78;4925088;28;114010;-70
2024/03/04 04:09:36;;;;;;;12.25;5.70;;;;;;;11.79;58.58;100858.13;4927169;28;124469;-70
2024/03/04 04:12:04;;;;;;;14.13;5.60;;;;;;;11.79;58.38;100858.13;4932721;28;124388;-70
2024/03/04 04:14:32;;;;;;;13.55;5.55;;;;;;;11.80;58.45;100865.13;4929656;28;113198;-70
2024/03/04 04:16:59;;;;;;;14.13;6.03;;;;;;;11.79;58.45;100866.09;4919805;28;113123;-70
2024/03/04 04:19:27;;;;;;;11.65;5.65;;;;;;;11.78;58.61;100872.31;4929763;28;124296;-70
2024/03/04 04:21:54;;;;;;;13.57;5.80;;;;;;;11.77;58.57;100875.94;4940029;28;124231;-70
2024/03/04 04:24:23;;;;;;;12.18;5.97;;;;;;;11.77;58.53;100869.72;4924319;28;114360;-70
2024/03/04 04:26:50;;;;;;;11.38;5.63;;;;;;;11.76;58.54;100874.19;4931946;28;113167;-69
2024/03/04 04:29:19;;;;;;;10.98;5.32;;;;;;;11.75;58.60;100877.75;4932034;28;123974;-71
2024/03/04 04:31:46;;;;;;;11.63;5.80;;;;;;;11.75;58.70;100883.06;4928043;28;124309;-71
2024/03/04 04:34:13;;;;;;;11.98;5.32;;;;;;;11.77;58.68;100894.50;4932912;28;113533;-70
2024/03/04 04:36:49;;;;;;;16.27;5.47;;;;;;;11.77;58.49;100891.84;4930013;28;114355;-70
2024/03/04 04:39:17;;;;;;;10.75;5.13;;;;;;;11.77;58.44;100899.81;4931422;28;123751;-70
2024/03/04 04:41:45;;;;;;;9.75;5.32;;;;;;;11.77;58.56;100907.75;4943937;28;124083;-70
2024/03/04 04:44:12;;;;;;;13.40;5.25;;;;;;;11.76;58.51;100905.19;4931821;28;115016;-70
2024/03/04 04:46:39;;;;;;;7.80;4.68;;;;;;;11.75;58.51;100914.91;4929454;28;115083;-70
2024/03/04 04:49:07;;;;;;;8.85;4.75;;;;;;;11.74;58.60;100907.91;4929931;28;124309;-70
2024/03/04 04:51:35;;;;;;;8.25;5.10;;;;;;;11.74;58.79;100918.50;4933370;28;125013;-71
2024/03/04 04:54:02;;;;;;;9.05;4.70;;;;;;;11.74;58.58;100923.81;4932118;28;114739;-70
2024/03/04 04:56:30;;;;;;;10.00;4.72;;;;;;;11.74;58.60;100929.13;4945753;28;112924;-70
2024/03/04 04:58:57;;;;;;;8.90;4.57;;;;;;;11.72;58.60;100931.00;4929701;28;124354;-70
2024/03/04 05:01:28;;;;;;;11.68;4.97;;;;;;;11.73;58.72;100935.34;4918538;28;124412;-70
2024/03/04 05:03:56;;;;;;;12.05;4.75;;;;;;;11.73;58.50;100927.41;4931138;28;114306;-70
2024/03/04 05:06:26;;;;;;;11.48;4.78;;;;;;;11.70;58.55;100932.88;4928743;28;114409;-70
2024/03/04 05:08:55;;;;;;;11.52;5.10;;;;;;;11.68;58.54;100929.44;4925676;28;124083;-70
2024/03/04 05:11:22;;;;;;;9.32;5.15;;;;;;;11.67;58.52;100938.31;4920365;28;123688;-70
2024/03/04 05:13:50;;;;;;;9.93;5.00;;;;;;;11.67;58.36;100938.31;4926893;28;114177;-70
2024/03/04 05:16:19;;;;;;;8.68;4.38;;;;;;;11.66;58.63;100941.91;4929634;28;113817;-70
2024/03/04 05:18:46;;;;;;;9.20;5.07;;;;;;;11.65;58.67;100945.50;4928998;28;123907;-70
2024/03/04 05:21:13;;;;;;;10.23;4.70;;;;;;;11.65;58.48;100951.66;4925595;28;123961;-70
2024/03/04 05:23:41;;;;;;;8.85;5.05;;;;;;;11.65;58.37;100956.09;4921383;28;113937;-70
2024/03/04 05:26:08;;;;;;;8.38;5.10;;;;;;;11.65;58.38;100953.44;4941522;28;113565;-69
2024/03/04 05:28:36;;;;;;;11.38;5.50;;;;;;;11.65;58.34;100966.72;4928980;28;124483;-70
2024/03/04 05:31:03;;;;;;;10.10;6.18;;;;;;;11.63;58.33;100964.13;4939527;28;123369;-70
2024/03/04 05:33:30;;;;;;;10.98;5.78;;;;;;;11.63;58.39;100968.59;4944037;28;115139;-70
2024/03/04 05:36:00;;;;;;;10.48;5.50;;;;;;;11.64;58.28;100964.97;4934862;28;115453;-70
2024/03/04 05:38:27;;;;;;;12.88;5.13;;;;;;;11.63;58.48;100968.59;4928513;28;123935;-70
2024/03/04 05:40:54;;;;;;;8.55;4.78;;;;;;;11.63;58.30;100968.59;4924271;28;124598;-70
2024/03/04 05:43:22;;;;;;;11.05;5.15;;;;;;;11.62;58.34;100969.50;4883982;28;1182968;-70
2024/03/04 05:45:49;;;;;;;9.82;4.65;;;;;;;11.61;58.34;100986.38;4932270;28;114524;-70
2024/03/04 05:48:16;;;;;;;11.85;4.35;;;;;;;11.61;58.27;100984.56;4928104;28;124661;-70
2024/03/04 05:50:44;;;;;;;7.03;3.95;;;;;;;11.61;58.31;100986.38;4947557;28;123991;-70
2024/03/04 05:53:12;;;;;;;11.30;4.60;;;;;;;11.61;58.17;100986.38;4933410;28;114263;-70
2024/03/04 05:55:39;;;;;;;8.85;4.55;;;;;;;11.60;58.17;100987.28;4937028;28;113157;-70
2024/03/04 05:58:07;;;;;;;10.38;4.85;;;;;;;11.60;58.12;100989.94;4921866;28;124291;-70
2024/03/04 06:00:34;;;;;;;9.02;4.72;;;;;;;11.59;57.92;100988.22;4930653;28;123758;-70
2024/03/04 06:03:02;;;;;;;9.25;4.78;;;;;;;11.58;57.97;100991.81;4942399;28;114388;-70
2024/03/04 06:05:29;;;;;;;8.18;3.80;;;;;;;11.58;58.11;101002.41;4929308;28;114631;-70
2024/03/04 06:07:58;;;;;;;10.50;4.30;;;;;;;11.56;58.11;100999.81;4928449;28;123639;-70
2024/03/04 06:10:27;;;;;;;7.57;3.88;;;;;;;11.57;58.03;100996.25;4944544;28;122787;-70
2024/03/04 06:12:55;;;;;;;9.43;3.83;;;;;;;11.59;58.03;101004.16;4925495;28;114246;-70
2024/03/04 06:15:23;;;;;;;7.00;3.65;;;;;;;11.59;58.07;101009.47;4929429;28;114636;-70
2024/03/04 06:17:50;;;;;;;8.05;3.88;;;;;;;11.59;57.92;101001.50;4927983;28;123771;-69
2024/03/04 06:20:17;;;;;;;6.03;2.70;;;;;;;11.62;57.99;101003.97;4927716;28;122728;-70
2024/03/04 06:22:45;;;;;;;5.90;2.55;;;;;;;11.63;57.87;101005.72;4927299;28;115749;-70
2024/03/04 06:25:12;;;;;;;7.18;2.60;;;;;;;11.63;57.80;101001.28;4924845;28;115693;-70
2024/03/04 06:27:41;;;;;;;5.18;2.60;;;;;;;11.64;57.86;101002.13;4929407;28;124712;-70
2024/03/04 06:30:12;;;;;;;4.68;2.00;;;;;;;11.64;57.70;101012.72;4929414;28;123767;-70
2024/03/04 06:32:41;;;;;;;6.07;2.65;;;;;;;11.62;57.66;101017.25;4923643;28;114316;-70
2024/03/04 06:35:08;;;;;;;7.47;2.20;;;;;;;11.62;57.57;101014.59;4931822;28;114237;-70
2024/03/04 06:37:36;;;;;;;4.53;2.10;;;;;;;11.61;57.52;101023.50;4930693;28;124186;-70
2024/03/04 06:40:04;;;;;;;5.10;2.60;;;;;;;11.60;57.76;101022.66;4930283;28;123603;-70
2024/03/04 06:42:31;;;;;;;6.43;2.30;;;;;;;11.61;57.74;101018.19;4944628;28;114641;-70
2024/03/04 06:44:58;;;;;;;7.40;2.28;;;;;;;11.63;57.53;101016.34;4929552;28;113926;-70
2024/03/04 06:47:26;;;;;;;4.30;2.28;;;;;;;11.64;57.63;101018.03;4928325;28;123660;-70
2024/03/04 06:49:54;;;;;;;3.83;1.98;;;;;;;11.66;57.63;101018.84;4926346;28;123589;-70
2024/03/04 06:52:22;;;;;;;4.55;2.20;;;;;;;11.66;57.49;101021.50;4929297;28;114363;-70
2024/03/04 06:54:49;;;;;;;5.30;2.05;;;;;;;11.68;57.57;101024.94;4932326;28;113879;-70
2024/03/04 06:57:17;;;;;;;3.25;1.80;;;;;;;11.66;57.29;101022.34;4924385;28;124773;-70
2024/03/04 06:59:45;;;;;;;4.80;2.00;;;;;;;11.66;57.36;101018.84;4930294;28;123208;-70
2024/03/04 07:02:12;;;;;;;6.38;1.98;;;;;;;11.64;57.48;101028.66;4929914;28;114399;-70
2024/03/04 07:04:39;;;;;;;3.55;1.63;;;;;;;11.63;57.32;101032.25;4935013;28;114104;-70
2024/03/04 07:07:07;;;;;;;2.67;1.63;;;;;;;11.63;57.40;101037.56;4949241;28;123408;-70
2024/03/04 07:09:36;;;;;;;4.50;1.75;;;;;;;11.61;57.33;101036.78;4932983;28;124952;-70
2024/03/04 07:12:03;;;;;;;4.25;1.73;;;;;;;11.60;57.28;101037.69;4930515;28;113481;-71
2024/03/04 07:14:31;;;;;;;4.38;1.58;;;;;;;11.59;57.32;101041.28;4943856;28;114909;-70
2024/03/04 07:16:58;;;;;;;3.97;1.80;;;;;;;11.60;57.29;101037.69;4937165;28;124084;-70
2024/03/04 07:19:26;;;;;;;5.95;1.95;;;;;;;11.62;57.19;101046.44;4936920;28;123860;-70
2024/03/04 07:21:53;;;;;;;4.93;1.80;;;;;;;11.64;57.10;101049.88;4927309;28;114465;-70
2024/03/04 07:24:20;;;;;;;5.85;2.00;;;;;;;11.65;57.22;101046.31;4930164;28;113866;-70
2024/03/04 07:26:47;;;;;;;5.18;1.63;;;;;;;11.65;57.22;101046.31;4942604;28;124430;-70
2024/03/04 07:29:16;;;;;;;5.43;1.80;;;;;;;11.66;57.10;101048.03;4954785;28;123408;-70
2024/03/04 07:31:57;;;;;;;3.78;1.70;;;;;;;11.69;57.32;101047.88;4930317;28;114277;-71
2024/03/04 07:34:26;;;;;;;5.30;1.60;;;;;;;11.73;57.26;101054.75;4942287;28;113349;-71
2024/03/04 07:36:54;;;;;;;4.22;1.80;;;;;;;11.76;57.31;101054.63;4924021;28;123468;-70
2024/03/04 07:39:22;;;;;;;5.38;1.98;;;;;;;11.81;57.29;101054.41;4927806;28;123107;-70
2024/03/04 07:41:50;;;;;;;3.97;2.17;;;;;;;11.83;57.21;101050.75;4925464;28;114436;-69
2024/03/04 07:44:20;;;;;;;5.68;2.33;;;;;;;11.87;57.26;101048.81;4931175;28;113855;-70
2024/03/04 07:46:51;;;;;;;4.68;2.30;;;;;;;11.87;57.15;101047.03;4949626;28;123166;-71
2024/03/04 07:49:18;;;;;;;5.63;2.13;;;;;;;11.91;57.09;101045.13;4933386;28;124276;-70
2024/03/04 07:51:46;;;;;;;4.03;2.38;;;;;;;11.95;57.12;101045.84;4936074;28;113335;-69
2024/03/04 07:54:13;;;;;;;7.60;2.58;;;;;;;11.98;57.18;101037.69;4926093;28;113004;-69
2024/03/04 07:56:40;;;;;;;5.35;2.85;;;;;;;12.02;57.10;101044.63;4930321;28;123913;-69
2024/03/04 07:59:08;;;;;;;8.80;3.05;;;;;;;12.08;57.10;101046.97;4932862;28;124420;-69
2024/03/04 08:01:44;;;;;;;6.50;2.97;;;;;;;12.14;57.29;101049.31;4925937;28;115205;-70
2024/03/04 08:04:12;;;;;;;9.40;2.72;;;;;;;12.21;57.14;101045.44;4930633;28;115018;-69
2024/03/04 08:06:39;;;;;;;7.72;3.20;;;;;;;12.25;57.14;101051.47;4930748;28;123708;-69
2024/03/04 08:09:07;;;;;;;7.20;3.03;;;;;;;12.27;57.08;101058.41;4928379;28;124591;-69
2024/03/04 08:11:36;;;;;;;7.07;3.08;;;;;;;12.27;57.07;101061.06;4920426;28;114281;-69
2024/03/04 08:14:04;;;;;;;8.93;3.42;;;;;;;12.33;57.01;101069.69;4927017;28;114154;-69
2024/03/04 08:16:31;;;;;;;11.50;3.65;;;;;;;12.37;57.09;101060.63;4923315;28;123255;-69
2024/03/04 08:18:59;;;;;;;9.93;3.63;;;;;;;12.43;56.97;101060.31;4924906;28;123768;-69
2024/03/04 08:21:26;;;;;;;8.90;3.10;;;;;;;12.46;57.01;101065.47;4922561;28;114289;-69
2024/03/04 08:23:53;;;;;;;6.95;3.00;;;;;;;12.49;56.87;101059.16;4931348;28;113701;-69
2024/03/04 08:26:21;;;;;;;9.45;3.40;;;;;;;12.52;56.88;101065.16;4931234;28;124093;-69
2024/03/04 08:28:48;;;;;;;8.40;3.83;;;;;;;12.58;56.96;101062.22;4928563;28;124734;-70
2024/03/04 08:31:17;;;;;;;7.47;3.65;;;;;;;12.61;56.94;101054.09;4929467;28;113793;-69
2024/03/04 08:33:45;;;;;;;6.20;3.22;;;;;;;12.68;56.70;101064.41;4920416;28;113894;-69
2024/03/04 08:36:12;;;;;;;6.95;3.35;;;;;;;12.72;56.73;101060.66;4942144;28;123408;-69
2024/03/04 08:38:40;;;;;;;6.95;3.00;;;;;;;12.74;56.70;101064.09;4928456;28;124039;-69
2024/03/04 08:41:10;;;;;;;9.35;3.33;;;;;;;12.77;56.59;101066.59;4939095;28;113974;-69
2024/03/04 08:43:37;;;;;;;8.85;3.25;;;;;;;12.79;56.67;101062.94;4933806;28;114242;-69
2024/03/04 08:46:05;;;;;;;6.32;3.20;;;;;;;12.84;56.51;101070.66;4922144;28;124386;-69
2024/03/04 08:48:32;;;;;;;5.75;2.58;;;;;;;12.89;56.39;101068.63;4927165;28;123758;-69
2024/03/04 08:50:59;;;;;;;6.45;3.10;;;;;;;12.90;56.43;101070.34;4931520;28;115244;-69
2024/03/04 08:53:29;;;;;;;6.20;3.00;;;;;;;12.95;56.48;101078.94;4925653;28;115292;-69
2024/03/04 08:55:56;;;;;;;5.35;2.80;;;;;;;12.99;56.56;101080.50;4930040;28;124150;-69
2024/03/04 08:58:23;;;;;;;6.32;2.90;;;;;;;13.02;56.46;101080.38;4927241;28;123872;-69
2024/03/04 09:00:50;;;;;;;5.63;2.60;;;;;;;13.05;56.33;101085.53;4944126;28;113897;-69
2024/03/04 09:03:18;;;;;;;9.05;3.13;;;;;;;13.11;56.30;101083.47;4936333;28;114053;-69
2024/03/04 09:05:45;;;;;;;4.70;2.50;;;;;;;13.14;56.18;101088.66;4912461;28;123822;-70
2024/03/04 09:08:13;;;;;;;4.07;2.53;;;;;;;13.15;56.17;101090.38;4930608;28;124836;-69
2024/03/04 09:10:40;;;;;;;3.95;2.38;;;;;;;13.18;55.86;101084.88;4928300;28;114292;-69
2024/03/04 09:13:08;;;;;;;5.32;2.60;;;;;;;13.21;56.03;101106.00;4940143;28;113023;-69
2024/03/04 09:15:35;;;;;;;5.03;2.58;;;;;;;13.22;56.04;101107.72;4922755;28;124231;-70
2024/03/04 09:18:05;;;;;;;3.67;2.17;;;;;;;13.23;55.76;101110.31;4937090;28;123999;-70
2024/03/04 09:20:32;;;;;;;6.90;2.30;;;;;;;13.25;56.02;101103.09;4929605;28;113238;-69
2024/03/04 09:22:59;;;;;;;5.32;2.15;;;;;;;13.27;55.77;101111.00;4931321;28;114292;-69
2024/03/04 09:25:26;;;;;;;7.00;2.30;;;;;;;13.30;55.71;101109.97;4929751;28;123732;-70
2024/03/04 09:27:54;;;;;;;4.53;1.80;;;;;;;13.31;55.82;101117.91;4931879;28;124457;-70
2024/03/04 09:30:22;;;;;;;5.38;2.20;;;;;;;13.35;55.89;101119.47;4933025;28;113991;-70
2024/03/04 09:32:49;;;;;;;4.30;2.00;;;;;;;13.38;55.67;101114.00;4952383;28;112813;-70
2024/03/04 09:35:16;;;;;;;3.47;2.00;;;;;;;13.42;55.59;101118.22;4933038;28;123869;-70
2024/03/04 09:37:44;;;;;;;3.35;1.77;;;;;;;13.42;55.44;101110.22;4924856;28;122911;-70
2024/03/04 09:40:12;;;;;;;4.03;2.00;;;;;;;13.42;55.38;101110.22;4921131;28;115758;-70
2024/03/04 09:42:48;;;;;;;2.67;1.85;;;;;;;13.41;55.46;101113.84;4926942;28;114934;-69
2024/03/04 09:45:19;;;;;;;5.55;2.05;;;;;;;13.43;55.40;101117.28;4923236;28;123998;-70
2024/03/04 09:47:54;;;;;;;2.70;1.95;;;;;;;13.47;55.48;101117.09;4930292;28;123331;-70
2024/03/04 09:50:25;;;;;;;;;;;;;;;13.52;55.67;101115.06;4944271;28;114337;-69
2024/03/04 09:52:56;;;;;;;6.85;2.28;;;;;;;13.59;55.37;101105.81;4939373;28;113331;-71
2024/03/04 09:55:24;;;;;;;5.13;1.83;;;;;;;13.62;55.25;101105.66;4927565;28;123395;-70
2024/03/04 09:57:51;;;;;;;4.32;1.88;;;;;;;13.59;54.92;101112.00;4928922;28;123849;-69
2024/03/04 10:00:20;;;;;;;4.40;1.95;;;;;;;13.58;55.22;101110.28;4925512;28;112799;-70
2024/03/04 10:02:48;;;;;;;3.67;1.83;;;;;;;13.59;55.09;101116.47;4926978;28;114350;-70
2024/03/04 10:05:16;;;;;;;3.25;2.15;;;;;;;13.61;55.07;101119.91;4918844;28;123853;-71
2024/03/04 10:07:45;;;;;;;3.38;2.05;;;;;;;13.63;54.99;101124.19;4922169;28;124053;-70
2024/03/04 10:10:12;;;;;;;3.45;2.28;;;;;;;13.67;55.04;101124.88;4927835;28;114812;-71
2024/03/04 10:12:40;;;;;;;4.07;2.15;;;;;;;13.71;55.01;101114.94;4926862;28;113264;-70
2024/03/04 10:15:12;;;;;;;3.13;1.98;;;;;;;13.78;54.96;101117.19;4933156;28;124298;-70
2024/03/04 10:17:40;;;;;;;5.85;2.25;;;;;;;13.87;55.03;101125.63;4939689;28;123773;-70
2024/03/04 10:20:11;;;;;;;4.95;2.10;;;;;;;13.93;55.06;101115.50;4931197;28;112679;-70
2024/03/04 10:22:40;;;;;;;4.80;1.92;;;;;;;14.01;55.01;101123.94;4930972;28;114103;-70
2024/03/04 10:25:16;;;;;;;4.28;2.10;;;;;;;14.06;54.67;101118.34;4935225;28;124781;-71
2024/03/04 10:27:49;;;;;;;2.55;1.90;;;;;;;14.11;54.61;101124.28;4912074;28;122718;-70
2024/03/04 10:30:19;;;;;;;4.03;2.25;;;;;;;14.16;54.66;101127.53;4928327;28;115276;-70
2024/03/04 10:32:56;;;;;;;5.03;2.80;;;;;;;14.20;54.39;101125.56;4920686;28;115287;-70
2024/03/04 10:35:26;;;;;;;2.80;2.10;;;;;;;14.25;54.51;101117.34;4925885;28;122800;-71
2024/03/04 10:38:02;;;;;;;3.78;2.03;;;;;;;14.30;54.39;101126.78;4933688;28;122877;-70
2024/03/04 10:40:33;;;;;;;4.10;2.08;;;;;;;14.40;54.52;101119.13;4936210;28;114297;-70
2024/03/04 10:43:03;;;;;;;4.00;2.20;;;;;;;14.51;54.50;101124.69;4937890;28;113871;-70
2024/03/04 10:45:33;;;;;;;4.85;2.05;;;;;;;14.60;54.53;101124.22;4932924;28;123170;-70
2024/03/04 10:48:02;;;;;;;4.43;1.65;;;;;;;14.73;54.35;101120.81;4926228;28;124190;-71
2024/03/04 10:50:30;;;;;;;1.70;1.55;;;;;;;14.78;54.25;101129.41;4929323;28;114494;-70
2024/03/04 10:52:58;;;;;;;4.35;1.95;;;;;;;14.83;54.04;101127.34;4930040;28;114278;-70
2024/03/04 10:55:30;;;;;;;5.22;2.10;;;;;;;14.86;53.90;101129.84;4924208;28;124299;-70
2024/03/04 10:58:01;;;;;;;4.43;1.85;;;;;;;14.85;53.69;101130.78;4932745;28;123833;-70
2024/03/04 11:00:32;;;;;;;3.75;2.00;;;;;;;14.86;53.64;101127.19;4927288;28;112634;-70
2024/03/04 11:03:01;;;;;;;3.08;2.17;;;;;;;14.86;53.66;101132.53;4929745;28;113144;-71
2024/03/04 11:05:32;;;;;;;3.13;1.77;;;;;;;14.88;53.41;101130.63;4933447;28;124141;-70
2024/03/04 11:08:15;;;;;;;2.28;1.77;;;;;;;14.89;53.31;101132.31;4932782;28;122874;-70
2024/03/04 11:10:50;;;;;;;4.10;1.85;;;;;;;14.89;53.35;101137.66;4932229;28;115281;-70
2024/03/04 11:13:32;;;;;;;3.03;2.20;;;;;;;14.87;53.19;101134.22;4923288;28;114226;-70
2024/03/04 11:16:06;;;;;;;2.65;2.03;;;;;;;14.83;53.11;101127.34;4928583;28;124065;-70
2024/03/04 11:19:07;;;;;;;2.85;2.08;;;;;;;14.80;53.11;101127.53;4912785;28;122779;-70
2024/03/04 11:21:38;;;;;;;2.85;1.90;;;;;;;14.78;53.01;101124.09;4930695;28;115583;-70
2024/03/04 11:24:08;;;;;;;4.00;2.17;;;;;;;14.79;53.07;101131.16;4933751;28;114914;-69